This is the latest recevied weather packets stored in our database for station/object KD5GAT-51. If no packets are shown the sender has not sent any weather packets the latest 10 day(s).
| Time | Temp. | Humidity | Pressure | Rain* | Wind** | Luminosity | Snow |
|---|---|---|---|---|---|---|---|
| 1777331426 | 34.44° C | 62% | 1011 hPa | - | - | - | - |
| 1777330526 | 35° C | 57% | 1011 hPa | - | - | - | - |
| 1777329625 | 36.11° C | 56% | 1010.9 hPa | - | - | - | - |
| 1777328725 | 34.44° C | 61% | 1011 hPa | - | - | - | - |
| 1777327825 | 34.44° C | 62% | 1010.8 hPa | - | - | - | - |
| 1777326932 | 34.44° C | 59% | 1011.2 hPa | - | - | - | - |
| 1777326032 | 36.67° C | 53% | 1011.4 hPa | - | - | - | - |
| 1777325132 | 37.22° C | 53% | 1011.2 hPa | - | - | - | - |
| 1777324232 | 36.11° C | 56% | 1011.5 hPa | - | - | - | - |
| 1777323331 | 35.56° C | 59% | 1011.8 hPa | - | - | - | - |
| 1777322431 | 35° C | 63% | 1012.1 hPa | - | - | - | - |
| 1777321531 | 33.89° C | 69% | 1012.1 hPa | - | - | - | - |
| 1777320631 | 31.67° C | 80% | 1012.6 hPa | - | - | - | - |
| 1777319730 | 30.56° C | 86% | 1012.9 hPa | - | - | - | - |
| 1777318830 | 31.11° C | 83% | 1013 hPa | - | - | - | - |
| 1777317930 | 31.11° C | 83% | 1013 hPa | - | - | - | - |
| 1777317030 | 31.67° C | 80% | 1013.1 hPa | - | - | - | - |
| 1777316130 | 33.89° C | 67% | 1013 hPa | - | - | - | - |
| 1777315230 | 33.89° C | 67% | 1013.1 hPa | - | - | - | - |
| 1777314329 | 33.89° C | 66% | 1013 hPa | - | - | - | - |
| 1777313429 | 32.22° C | 77% | 1013.2 hPa | - | - | - | - |
| 1777312529 | 31.67° C | 79% | 1013.4 hPa | - | - | - | - |
| 1777311629 | 31.11° C | 84% | 1013.4 hPa | - | - | - | - |
| 1777310729 | 28.33° C | 100% | 1013.7 hPa | - | - | - | - |
| 1777309828 | 27.22° C | 100% | 1013.8 hPa | - | - | - | - |
* Rain since midnight (hover to see other rain measurements)
** Current wind speed in m/s (hover to see current wind gust speed)